createdAt,value
2023-05-11T00:06:28.471Z,18.75
2023-05-11T00:08:56.435Z,18.33
2023-05-11T00:11:24.313Z,18.63
2023-05-11T00:13:51.945Z,18.95
2023-05-11T00:16:19.608Z,18.42
2023-05-11T00:18:48.796Z,20.10
2023-05-11T00:21:19.579Z,21.77
2023-05-11T00:23:51.125Z,24.20
2023-05-11T00:26:21.990Z,22.67
2023-05-11T00:28:49.825Z,22.60
2023-05-11T00:31:19.608Z,23.27
2023-05-11T00:33:48.730Z,23.02
2023-05-11T00:36:19.405Z,22.90
2023-05-11T00:38:47.575Z,23.88
2023-05-11T00:41:17.139Z,22.98
2023-05-11T00:43:45.107Z,23.25
2023-05-11T00:46:12.903Z,22.33
2023-05-11T00:48:41.195Z,21.92
2023-05-11T00:51:09.009Z,22.35
2023-05-11T00:53:37.215Z,22.15
2023-05-11T00:56:05.055Z,22.15
2023-05-11T00:58:32.749Z,23.08
2023-05-11T01:01:00.924Z,23.42
2023-05-11T01:03:29.885Z,23.08
2023-05-11T01:06:06.593Z,22.90
2023-05-11T01:08:40.387Z,23.17
2023-05-11T01:11:08.453Z,22.15
2023-05-11T01:13:40.554Z,21.88
2023-05-11T01:16:21.122Z,22.70
2023-05-11T01:18:59.634Z,22.33
2023-05-11T01:21:35.051Z,20.17
2023-05-11T01:24:03.756Z,22.30
2023-05-11T01:26:42.066Z,23.70
2023-05-11T01:29:49.461Z,23.42
2023-05-11T01:32:24.597Z,25.30
2023-05-11T01:34:55.364Z,23.40
2023-05-11T01:37:25.663Z,26.55
2023-05-11T01:39:55.277Z,26.13
2023-05-11T01:42:29.842Z,27.10
2023-05-11T01:44:58.143Z,26.40
2023-05-11T01:47:27.516Z,26.00
2023-05-11T01:49:56.079Z,24.95
2023-05-11T01:52:25.917Z,23.90
2023-05-11T01:54:56.264Z,24.65
2023-05-11T01:57:24.331Z,25.58
2023-05-11T01:59:52.025Z,27.85
2023-05-11T02:02:20.568Z,29.23
2023-05-11T02:04:49.113Z,27.65
2023-05-11T02:07:21.782Z,25.52
2023-05-11T02:09:51.149Z,26.15
2023-05-11T02:12:20.980Z,25.20
2023-05-11T02:14:52.358Z,27.20
2023-05-11T02:17:22.053Z,25.58
2023-05-11T02:19:50.355Z,26.60
2023-05-11T02:22:20.847Z,25.38
2023-05-11T02:24:50.161Z,24.30
2023-05-11T02:27:20.492Z,25.73
2023-05-11T02:29:51.942Z,25.30
2023-05-11T02:32:23.987Z,25.02
2023-05-11T02:35:00.247Z,23.67
2023-05-11T02:37:28.984Z,25.38
2023-05-11T02:40:00.656Z,24.35
2023-05-11T02:42:31.090Z,26.55
2023-05-11T02:45:02.861Z,27.83
2023-05-11T02:47:35.518Z,29.88
2023-05-11T02:50:05.154Z,30.95
2023-05-11T02:52:37.278Z,30.92
2023-05-11T02:55:05.499Z,33.15
2023-05-11T02:57:33.169Z,32.53
2023-05-11T03:00:08.900Z,35.45
2023-05-11T03:02:36.712Z,34.47
2023-05-11T03:05:05.610Z,34.40
2023-05-11T03:07:34.040Z,36.20
2023-05-11T03:10:02.457Z,36.25
2023-05-11T03:12:35.734Z,36.78
2023-05-11T03:15:05.281Z,38.88
2023-05-11T03:17:36.007Z,37.40
2023-05-11T03:20:05.301Z,37.13
2023-05-11T03:22:33.947Z,36.55
2023-05-11T03:25:04.091Z,36.47
2023-05-11T03:27:33.275Z,37.88
2023-05-11T03:30:02.898Z,37.83
2023-05-11T03:32:35.991Z,35.78
2023-05-11T03:35:04.489Z,37.50
2023-05-11T03:37:32.568Z,36.97
2023-05-11T03:40:05.683Z,36.28
2023-05-11T03:42:42.830Z,37.20
2023-05-11T03:45:10.935Z,36.78
2023-05-11T03:47:40.894Z,37.20
2023-05-11T03:50:10.850Z,37.15
2023-05-11T03:52:39.248Z,36.97
2023-05-11T03:55:08.407Z,35.90
2023-05-11T03:57:36.784Z,35.13
2023-05-11T04:00:07.267Z,35.95
2023-05-11T04:02:42.858Z,37.67
2023-05-11T04:05:13.428Z,37.88
2023-05-11T04:07:43.052Z,37.40
2023-05-11T04:10:11.092Z,37.95
2023-05-11T04:12:41.495Z,37.63
2023-05-11T04:15:10.125Z,38.95
2023-05-11T04:17:37.947Z,38.47
2023-05-11T04:20:07.585Z,38.95
2023-05-11T04:22:36.133Z,39.88
2023-05-11T04:25:04.510Z,40.35
2023-05-11T04:27:35.595Z,40.67
2023-05-11T04:30:05.556Z,41.88
2023-05-11T04:32:33.446Z,42.38
2023-05-11T04:35:01.333Z,40.95
2023-05-11T04:37:39.931Z,41.00
2023-05-11T04:40:10.261Z,40.60
2023-05-11T04:42:41.469Z,40.60
2023-05-11T04:45:19.726Z,39.47
2023-05-11T04:47:49.337Z,38.53
2023-05-11T04:50:19.067Z,39.80
2023-05-11T04:52:47.439Z,40.03
2023-05-11T04:55:15.290Z,38.92
2023-05-11T04:57:43.111Z,40.42
2023-05-11T05:00:12.772Z,38.72
2023-05-11T05:02:40.586Z,40.67
2023-05-11T05:05:11.467Z,39.53
2023-05-11T05:07:40.748Z,40.85
2023-05-11T05:10:09.906Z,39.53
2023-05-11T05:12:38.167Z,39.42
2023-05-11T05:15:06.192Z,37.15
2023-05-11T05:17:34.400Z,38.17
2023-05-11T05:20:02.505Z,38.55
2023-05-11T05:22:31.900Z,39.75
2023-05-11T05:24:59.869Z,38.95
2023-05-11T05:27:27.951Z,38.45
2023-05-11T05:29:56.660Z,39.00
2023-05-11T05:32:26.008Z,37.85
2023-05-11T05:34:55.375Z,38.53
2023-05-11T05:37:23.340Z,37.90
2023-05-11T05:39:50.995Z,35.70
2023-05-11T05:42:19.814Z,36.63
2023-05-11T05:44:49.574Z,37.35
2023-05-11T05:47:18.059Z,36.20
2023-05-11T05:49:50.165Z,36.10
2023-05-11T05:52:18.863Z,34.90
2023-05-11T05:54:50.535Z,34.80
2023-05-11T05:57:21.829Z,35.35
2023-05-11T05:59:50.007Z,34.78
2023-05-11T06:02:20.835Z,34.70
2023-05-11T06:04:51.953Z,35.38
2023-05-11T06:07:24.446Z,36.53
2023-05-11T06:09:52.287Z,34.63
2023-05-11T06:12:19.813Z,33.58
2023-05-11T06:14:49.925Z,31.50
2023-05-11T06:17:18.678Z,35.22
2023-05-11T06:19:49.206Z,36.38
2023-05-11T06:22:21.118Z,36.03
2023-05-11T06:24:52.634Z,37.67
2023-05-11T06:27:23.339Z,35.70
2023-05-11T06:29:55.614Z,37.05
2023-05-11T06:32:23.649Z,38.53
2023-05-11T06:34:52.524Z,37.17
2023-05-11T06:37:20.781Z,35.78
2023-05-11T06:39:51.120Z,36.72
2023-05-11T06:42:19.624Z,36.72
2023-05-11T06:44:49.465Z,36.17
2023-05-11T06:47:19.730Z,34.97
2023-05-11T06:49:48.444Z,33.95
2023-05-11T06:52:19.015Z,36.40
2023-05-11T06:54:47.362Z,35.97
2023-05-11T06:57:15.269Z,36.08
2023-05-11T06:59:44.102Z,34.15
2023-05-11T07:02:12.012Z,32.70
2023-05-11T07:04:40.723Z,34.33
2023-05-11T07:07:09.417Z,34.03
2023-05-11T07:09:37.082Z,34.17
2023-05-11T07:12:06.132Z,34.03
2023-05-11T07:14:34.154Z,34.08
2023-05-11T07:17:02.105Z,34.83
2023-05-11T07:19:29.927Z,33.95
2023-05-11T07:21:57.962Z,34.13
2023-05-11T07:24:26.262Z,32.95
2023-05-11T07:26:54.080Z,31.98
2023-05-11T07:29:22.260Z,33.50
2023-05-11T07:31:49.960Z,32.00
2023-05-11T07:34:18.743Z,33.10
2023-05-11T07:36:47.873Z,33.13
2023-05-11T07:39:17.533Z,31.92
2023-05-11T07:41:45.221Z,34.55
2023-05-11T07:44:13.239Z,33.15
2023-05-11T07:46:41.504Z,31.88
2023-05-11T07:49:17.076Z,33.70
2023-05-11T07:51:53.452Z,35.08
2023-05-11T07:54:21.840Z,33.58
2023-05-11T07:56:51.343Z,33.05
2023-05-11T07:59:19.897Z,32.72
2023-05-11T08:01:50.647Z,32.10
2023-05-11T08:04:18.837Z,33.63
2023-05-11T08:06:55.555Z,33.45
2023-05-11T08:09:23.603Z,34.72
2023-05-11T08:11:51.827Z,31.98
2023-05-11T08:14:21.605Z,31.65
2023-05-11T08:16:50.463Z,30.95
2023-05-11T08:19:19.122Z,30.55
2023-05-11T08:21:50.391Z,30.88
2023-05-11T08:24:18.771Z,30.63
2023-05-11T08:26:47.377Z,30.45
2023-05-11T08:29:20.566Z,28.35
2023-05-11T08:31:49.100Z,30.48
2023-05-11T08:34:20.199Z,28.88
2023-05-11T08:36:48.701Z,28.50
2023-05-11T08:39:32.869Z,29.42
2023-05-11T08:42:07.499Z,27.73
2023-05-11T08:44:37.957Z,28.67
2023-05-11T08:47:21.795Z,28.92
2023-05-11T08:49:53.756Z,28.02
2023-05-11T08:52:21.838Z,28.25
2023-05-11T08:54:53.040Z,27.75
2023-05-11T08:57:20.963Z,30.00
2023-05-11T08:59:53.256Z,28.70
2023-05-11T09:02:21.682Z,27.27
2023-05-11T09:04:50.678Z,28.33
2023-05-11T09:07:19.661Z,28.88
2023-05-11T09:09:51.225Z,27.75
2023-05-11T09:12:19.396Z,27.20
2023-05-11T09:14:53.058Z,27.35
2023-05-11T09:17:25.948Z,28.50
2023-05-11T09:20:05.735Z,26.65
2023-05-11T09:22:42.206Z,27.60
2023-05-11T09:25:12.804Z,25.85
2023-05-11T09:27:44.837Z,25.98
2023-05-11T09:30:13.660Z,23.98
2023-05-11T09:32:50.044Z,24.00
2023-05-11T09:35:29.061Z,24.17
2023-05-11T09:38:01.102Z,25.80
2023-05-11T09:40:34.139Z,26.08
2023-05-11T09:43:03.976Z,24.25
2023-05-11T09:45:38.478Z,23.52
2023-05-11T09:48:25.217Z,24.02
2023-05-11T09:50:59.829Z,23.33
2023-05-11T09:53:38.327Z,24.38
2023-05-11T09:56:06.251Z,22.75
2023-05-11T09:58:54.093Z,22.10
2023-05-11T10:01:36.869Z,22.33
2023-05-11T10:04:22.238Z,22.02
2023-05-11T10:06:53.717Z,23.88
2023-05-11T10:09:24.767Z,23.00
2023-05-11T10:11:53.567Z,23.88
2023-05-11T10:14:22.484Z,22.95
2023-05-11T10:16:52.402Z,22.27
2023-05-11T10:19:22.724Z,21.85
2023-05-11T10:21:50.785Z,22.38
2023-05-11T10:24:22.399Z,22.35
2023-05-11T10:26:51.006Z,23.08
2023-05-11T10:29:22.721Z,22.85
2023-05-11T10:31:51.943Z,21.17
2023-05-11T10:34:24.389Z,21.65
2023-05-11T10:36:53.372Z,20.98
2023-05-11T10:39:22.109Z,22.48
2023-05-11T10:41:53.445Z,21.55
2023-05-11T10:44:34.883Z,22.55
2023-05-11T10:47:22.263Z,24.05
2023-05-11T10:50:05.932Z,27.27
2023-05-11T10:52:52.500Z,28.67
2023-05-11T10:55:28.924Z,28.73
2023-05-11T10:58:10.647Z,28.02
2023-05-11T11:00:49.296Z,28.55
2023-05-11T11:03:21.164Z,26.83
2023-05-11T11:05:50.243Z,28.42
2023-05-11T11:08:22.028Z,31.08
2023-05-11T11:10:51.791Z,29.92
2023-05-11T11:13:23.355Z,30.80
2023-05-11T11:15:54.460Z,33.63
2023-05-11T11:18:29.185Z,31.90
2023-05-11T11:20:57.803Z,34.28
2023-05-11T11:23:43.921Z,33.10
2023-05-11T11:26:13.927Z,33.42
2023-05-11T11:28:57.289Z,31.90
2023-05-11T11:31:29.284Z,31.90
2023-05-11T11:33:59.396Z,31.70
2023-05-11T11:36:47.282Z,32.13
2023-05-11T11:39:15.510Z,31.13
2023-05-11T11:41:43.223Z,30.80
2023-05-11T11:44:22.226Z,33.10
2023-05-11T11:47:10.055Z,34.92
2023-05-11T11:49:38.222Z,34.38
2023-05-11T11:52:11.680Z,35.03
2023-05-11T11:54:40.071Z,33.90
2023-05-11T11:57:49.448Z,35.92
2023-05-11T12:00:21.431Z,34.45
2023-05-11T12:02:50.867Z,33.13
2023-05-11T12:05:22.706Z,34.20
2023-05-11T12:07:52.972Z,35.05
2023-05-11T12:10:23.436Z,35.13
2023-05-11T12:15:26.407Z,33.30
2023-05-11T12:17:54.103Z,36.38
2023-05-11T12:20:23.051Z,37.25
2023-05-11T12:22:50.816Z,35.13
2023-05-11T12:25:22.249Z,31.92
2023-05-11T12:28:02.103Z,34.50
2023-05-11T12:30:30.862Z,34.80
2023-05-11T12:33:02.903Z,36.65
2023-05-11T12:35:34.078Z,36.53
2023-05-11T12:38:02.908Z,37.38
2023-05-11T12:40:31.738Z,37.13
2023-05-11T12:43:01.030Z,39.00
2023-05-11T12:45:29.555Z,39.63
2023-05-11T12:47:58.868Z,37.50
2023-05-11T12:50:27.120Z,37.15
2023-05-11T12:52:54.662Z,36.78
2023-05-11T12:55:29.435Z,37.78
2023-05-11T12:58:09.869Z,38.03
2023-05-11T13:03:05.073Z,36.08
2023-05-11T13:05:32.739Z,36.60
2023-05-11T13:08:06.811Z,34.47
2023-05-11T13:10:34.480Z,35.30
2023-05-11T13:13:05.268Z,37.22
2023-05-11T13:15:34.014Z,35.13
2023-05-11T13:18:02.689Z,32.67
2023-05-11T13:20:34.471Z,33.10
2023-05-11T13:23:11.581Z,34.03
2023-05-11T13:25:49.162Z,34.15
2023-05-11T13:28:21.764Z,30.58
2023-05-11T13:30:51.654Z,29.65
2023-05-11T13:33:20.374Z,31.17
2023-05-11T13:35:51.236Z,32.00
2023-05-11T13:38:22.989Z,31.45
2023-05-11T13:40:51.631Z,30.98
2023-05-11T13:43:20.140Z,31.95
2023-05-11T13:45:51.587Z,32.25
2023-05-11T13:48:20.889Z,31.48
2023-05-11T13:50:52.369Z,33.00
2023-05-11T13:53:21.551Z,33.75
2023-05-11T13:55:52.567Z,35.20
2023-05-11T13:58:22.434Z,33.88
2023-05-11T14:01:06.585Z,34.83
2023-05-11T14:03:35.379Z,33.47
2023-05-11T14:06:04.386Z,35.75
2023-05-11T14:08:32.269Z,32.03
2023-05-11T14:11:00.052Z,32.35
2023-05-11T14:13:27.729Z,31.55
2023-05-11T14:15:56.338Z,29.63
2023-05-11T14:18:26.742Z,30.95
2023-05-11T14:20:55.009Z,26.27
2023-05-11T14:23:23.374Z,22.77
2023-05-11T14:29:11.529Z,13.93
2023-05-11T14:31:41.830Z,11.75
2023-05-11T14:34:11.286Z,12.93
2023-05-11T14:36:39.241Z,12.95
2023-05-11T14:39:11.440Z,12.40
2023-05-11T14:41:54.770Z,13.57
2023-05-11T14:44:25.386Z,11.68
2023-05-11T14:46:54.556Z,12.48
2023-05-11T14:49:24.797Z,15.05
2023-05-11T14:51:54.047Z,17.90
2023-05-11T14:54:31.621Z,17.65
2023-05-11T14:57:02.355Z,18.88
2023-05-11T14:59:31.701Z,18.05
2023-05-11T15:02:01.753Z,17.42
2023-05-11T15:04:37.247Z,18.52
2023-05-11T15:07:07.674Z,18.15
2023-05-11T15:09:45.282Z,18.70
2023-05-11T15:12:27.040Z,18.88
2023-05-11T15:14:55.925Z,18.02
2023-05-11T15:17:30.979Z,19.40
2023-05-11T15:20:02.936Z,18.50
2023-05-11T15:22:31.314Z,19.17
2023-05-11T15:25:02.065Z,18.58
2023-05-11T15:27:29.960Z,17.60
2023-05-11T15:29:57.955Z,16.63
2023-05-11T15:32:26.220Z,17.50
2023-05-11T15:34:59.769Z,18.08
2023-05-11T15:37:29.291Z,17.67
2023-05-11T15:39:56.649Z,18.05
2023-05-11T15:42:32.944Z,18.38
2023-05-11T15:45:01.528Z,18.83
2023-05-11T15:47:28.904Z,18.70
2023-05-11T15:49:57.479Z,19.38
2023-05-11T15:52:26.204Z,20.50
2023-05-11T15:54:53.598Z,21.02
2023-05-11T15:57:21.314Z,19.90
2023-05-11T15:59:51.592Z,19.90
2023-05-11T16:02:25.727Z,17.60
2023-05-11T16:04:53.278Z,19.13
2023-05-11T16:07:25.976Z,18.52
2023-05-11T16:09:56.144Z,19.15
2023-05-11T16:12:29.924Z,19.17
2023-05-11T16:14:59.274Z,18.10
2023-05-11T16:17:32.177Z,18.95
2023-05-11T16:20:00.734Z,19.55
2023-05-11T16:22:31.016Z,18.20
2023-05-11T16:24:59.048Z,18.33
2023-05-11T16:27:28.710Z,16.85
2023-05-11T16:29:56.580Z,16.17
2023-05-11T16:32:25.566Z,13.48
2023-05-11T16:34:53.578Z,13.10
2023-05-11T16:37:26.287Z,12.35
2023-05-11T16:39:54.639Z,11.50
2023-05-11T16:42:24.223Z,9.55
2023-05-11T16:44:54.584Z,9.98
2023-05-11T16:47:26.365Z,9.40
2023-05-11T16:49:56.472Z,8.98
2023-05-11T16:52:25.070Z,6.10
2023-05-11T16:54:53.747Z,4.70
2023-05-11T16:57:22.818Z,4.15
2023-05-11T16:59:50.992Z,4.45
2023-05-11T17:02:20.325Z,4.07
2023-05-11T17:04:49.310Z,4.63
2023-05-11T17:07:19.830Z,4.03
2023-05-11T17:09:52.218Z,4.18
2023-05-11T17:12:35.855Z,4.20
2023-05-11T17:15:04.175Z,5.32
2023-05-11T17:17:31.862Z,24.45
2023-05-11T17:20:00.278Z,18.45
2023-05-11T17:22:30.232Z,5.43
2023-05-11T17:24:58.181Z,4.18
2023-05-11T17:27:30.426Z,4.25
2023-05-11T17:30:01.093Z,3.92
2023-05-11T17:32:29.615Z,4.00
2023-05-11T17:34:57.640Z,4.22
2023-05-11T17:37:31.627Z,4.93
2023-05-11T17:40:03.642Z,4.40
2023-05-11T17:42:31.731Z,4.30
2023-05-11T17:44:59.557Z,4.50
2023-05-11T17:47:29.111Z,4.15
2023-05-11T17:49:57.491Z,4.90
2023-05-11T17:52:27.914Z,4.45
2023-05-11T17:57:29.494Z,5.10
2023-05-11T17:59:58.281Z,5.22
2023-05-11T18:02:28.754Z,4.45
2023-05-11T18:04:57.099Z,4.85
2023-05-11T18:07:25.561Z,4.90
2023-05-11T18:09:53.592Z,4.93
2023-05-11T18:12:22.475Z,4.63
2023-05-11T18:14:50.769Z,4.68
2023-05-11T18:17:20.456Z,5.35
2023-05-11T18:19:51.975Z,5.43
2023-05-11T18:22:20.810Z,6.03
2023-05-11T18:24:50.187Z,5.30
2023-05-11T18:27:21.633Z,5.20
2023-05-11T18:29:51.118Z,5.18
2023-05-11T18:32:22.432Z,6.10
2023-05-11T18:34:51.085Z,5.38
2023-05-11T18:37:20.696Z,5.00
2023-05-11T18:39:52.385Z,5.40
2023-05-11T18:42:23.174Z,4.80
2023-05-11T18:44:54.602Z,5.10
2023-05-11T18:47:23.216Z,4.75
2023-05-11T18:49:51.026Z,4.97
2023-05-11T18:52:20.446Z,4.60
2023-05-11T18:54:49.231Z,4.68
2023-05-11T18:57:19.576Z,4.32
2023-05-11T18:59:49.714Z,3.88
2023-05-11T19:02:30.503Z,4.30
2023-05-11T19:04:58.877Z,4.45
2023-05-11T19:07:27.300Z,3.88
2023-05-11T19:09:55.053Z,4.13
2023-05-11T19:12:22.654Z,4.20
2023-05-11T19:14:50.267Z,3.95
2023-05-11T19:17:19.431Z,3.95
2023-05-11T19:19:48.115Z,3.92
2023-05-11T19:22:17.723Z,4.40
2023-05-11T19:24:45.871Z,4.18
2023-05-11T19:27:13.952Z,4.32
2023-05-11T19:29:41.704Z,4.80
2023-05-11T19:32:09.492Z,4.85
2023-05-11T19:34:37.509Z,5.00
2023-05-11T19:37:05.338Z,5.05
2023-05-11T19:39:33.412Z,4.90
2023-05-11T19:42:01.343Z,4.85
2023-05-11T19:44:33.243Z,5.07
2023-05-11T19:47:01.692Z,4.97
2023-05-11T19:49:30.241Z,5.43
2023-05-11T19:51:58.574Z,5.28
2023-05-11T19:54:26.592Z,5.30
2023-05-11T19:56:57.813Z,4.85
2023-05-11T19:59:32.433Z,5.68
2023-05-11T20:02:02.186Z,6.07
2023-05-11T20:04:32.702Z,5.55
2023-05-11T20:07:00.383Z,5.57
2023-05-11T20:09:28.255Z,5.97
2023-05-11T20:11:56.766Z,6.20
2023-05-11T20:14:24.684Z,6.20
2023-05-11T20:16:52.325Z,6.85
2023-05-11T20:19:21.472Z,7.15
2023-05-11T20:21:50.170Z,7.35
2023-05-11T20:24:19.671Z,7.30
2023-05-11T20:26:48.982Z,7.88
2023-05-11T20:29:19.698Z,7.55
2023-05-11T20:31:49.249Z,7.60
2023-05-11T20:34:19.550Z,8.77
2023-05-11T20:36:53.430Z,9.40
2023-05-11T20:39:22.292Z,8.90
2023-05-11T20:41:50.444Z,9.30
2023-05-11T20:44:21.890Z,9.52
2023-05-11T20:46:51.177Z,10.13
2023-05-11T20:49:37.698Z,9.73
2023-05-11T20:52:07.681Z,10.25
2023-05-11T20:54:38.599Z,10.55
2023-05-11T20:57:08.706Z,11.48
2023-05-11T21:02:14.255Z,10.07
2023-05-11T21:04:43.346Z,10.90
2023-05-11T21:07:14.213Z,10.52
2023-05-11T21:09:55.408Z,9.98
2023-05-11T21:12:26.277Z,9.50
2023-05-11T21:14:57.098Z,10.02
2023-05-11T21:17:26.248Z,9.88
2023-05-11T21:19:55.139Z,9.80
2023-05-11T21:22:27.629Z,10.20
2023-05-11T21:25:04.237Z,10.55
2023-05-11T21:27:40.123Z,9.75
2023-05-11T21:30:10.652Z,9.77
2023-05-11T21:35:21.188Z,9.38
2023-05-11T21:37:50.364Z,9.10
2023-05-11T21:40:21.304Z,9.68
2023-05-11T21:42:50.789Z,10.07
2023-05-11T21:45:28.384Z,9.52
2023-05-11T21:47:59.141Z,9.73
2023-05-11T21:50:27.739Z,9.90
2023-05-11T21:52:55.538Z,9.00
2023-05-11T21:55:23.566Z,9.48
2023-05-11T21:57:51.665Z,8.55
2023-05-11T22:00:24.369Z,8.52
2023-05-11T22:02:52.444Z,8.43
2023-05-11T22:05:20.789Z,9.00
2023-05-11T22:07:53.925Z,9.27
2023-05-11T22:10:24.791Z,9.50
2023-05-11T22:13:08.008Z,8.73
2023-05-11T22:15:38.983Z,9.63
2023-05-11T22:18:09.652Z,10.20
2023-05-11T22:20:39.051Z,8.80
2023-05-11T22:23:06.923Z,9.10
2023-05-11T22:25:37.271Z,8.90
2023-05-11T22:28:06.258Z,9.02
2023-05-11T22:30:35.148Z,8.82
2023-05-11T22:33:03.966Z,7.95
2023-05-11T22:35:31.974Z,8.10
2023-05-11T22:38:02.129Z,8.70
2023-05-11T22:40:29.840Z,8.32
2023-05-11T22:42:58.066Z,8.18
2023-05-11T22:45:25.703Z,7.97
2023-05-11T22:47:56.673Z,8.13
2023-05-11T22:50:24.672Z,7.85
2023-05-11T22:52:53.429Z,7.18
2023-05-11T22:55:23.377Z,7.22
2023-05-11T22:57:50.979Z,6.40
2023-05-11T23:00:23.538Z,6.75
2023-05-11T23:02:51.804Z,6.35
2023-05-11T23:05:20.488Z,6.03
2023-05-11T23:07:52.025Z,5.95
2023-05-11T23:10:29.659Z,6.80
2023-05-11T23:12:58.358Z,5.90
2023-05-11T23:15:26.364Z,5.90
2023-05-11T23:17:54.127Z,5.50
2023-05-11T23:20:23.797Z,5.72
2023-05-11T23:23:11.060Z,5.70
2023-05-11T23:25:41.905Z,5.88
2023-05-11T23:28:11.729Z,6.68
2023-05-11T23:30:43.378Z,6.43
2023-05-11T23:33:11.105Z,6.82
2023-05-11T23:35:41.164Z,7.20
2023-05-11T23:38:09.024Z,7.45
2023-05-11T23:40:37.360Z,7.63
2023-05-11T23:43:05.206Z,7.97
2023-05-11T23:45:34.819Z,8.20
2023-05-11T23:48:02.810Z,8.50
2023-05-11T23:50:30.572Z,8.23
2023-05-11T23:52:59.679Z,8.80
2023-05-11T23:55:27.387Z,8.68
2023-05-11T23:57:58.158Z,8.82
